sensor_id;sensor_type;location;lat;lon;timestamp;P1;durP1;ratioP1;P2;durP2;ratioP2
9880;SDS011;4979;51.014;6.678;2024-03-22T00:01:46;40.53;;;18.27;;
9880;SDS011;4979;51.014;6.678;2024-03-22T00:04:12;35.78;;;18.00;;
9880;SDS011;4979;51.014;6.678;2024-03-22T00:06:39;33.35;;;16.70;;
9880;SDS011;4979;51.014;6.678;2024-03-22T00:09:05;36.40;;;16.92;;
9880;SDS011;4979;51.014;6.678;2024-03-22T00:11:31;33.03;;;16.13;;
9880;SDS011;4979;51.014;6.678;2024-03-22T00:13:57;36.42;;;17.20;;
9880;SDS011;4979;51.014;6.678;2024-03-22T00:16:23;36.00;;;17.27;;
9880;SDS011;4979;51.014;6.678;2024-03-22T00:18:48;34.63;;;16.75;;
9880;SDS011;4979;51.014;6.678;2024-03-22T00:21:14;26.48;;;14.73;;
9880;SDS011;4979;51.014;6.678;2024-03-22T00:23:40;29.45;;;14.65;;
9880;SDS011;4979;51.014;6.678;2024-03-22T00:26:07;34.53;;;15.57;;
9880;SDS011;4979;51.014;6.678;2024-03-22T00:28:32;30.13;;;13.95;;
9880;SDS011;4979;51.014;6.678;2024-03-22T00:30:58;30.75;;;14.32;;
9880;SDS011;4979;51.014;6.678;2024-03-22T00:33:24;27.50;;;14.35;;
9880;SDS011;4979;51.014;6.678;2024-03-22T00:35:49;30.88;;;14.32;;
9880;SDS011;4979;51.014;6.678;2024-03-22T00:38:15;34.45;;;15.55;;
9880;SDS011;4979;51.014;6.678;2024-03-22T00:40:41;35.22;;;16.75;;
9880;SDS011;4979;51.014;6.678;2024-03-22T00:43:07;31.15;;;16.63;;
9880;SDS011;4979;51.014;6.678;2024-03-22T00:45:32;35.97;;;16.58;;
9880;SDS011;4979;51.014;6.678;2024-03-22T00:47:58;39.83;;;15.70;;
9880;SDS011;4979;51.014;6.678;2024-03-22T00:50:24;32.83;;;15.73;;
9880;SDS011;4979;51.014;6.678;2024-03-22T00:52:50;35.42;;;16.02;;
9880;SDS011;4979;51.014;6.678;2024-03-22T00:55:17;33.28;;;15.95;;
9880;SDS011;4979;51.014;6.678;2024-03-22T00:57:43;41.35;;;17.50;;
9880;SDS011;4979;51.014;6.678;2024-03-22T01:00:09;41.55;;;17.20;;
9880;SDS011;4979;51.014;6.678;2024-03-22T01:02:35;38.47;;;18.27;;
9880;SDS011;4979;51.014;6.678;2024-03-22T01:05:00;39.50;;;16.48;;
9880;SDS011;4979;51.014;6.678;2024-03-22T01:07:26;30.67;;;15.52;;
9880;SDS011;4979;51.014;6.678;2024-03-22T01:09:51;32.13;;;15.00;;
9880;SDS011;4979;51.014;6.678;2024-03-22T01:12:17;29.08;;;16.05;;
9880;SDS011;4979;51.014;6.678;2024-03-22T01:14:43;32.13;;;16.17;;
9880;SDS011;4979;51.014;6.678;2024-03-22T01:17:08;33.13;;;16.90;;
9880;SDS011;4979;51.014;6.678;2024-03-22T01:19:34;29.52;;;14.73;;
9880;SDS011;4979;51.014;6.678;2024-03-22T01:21:59;31.55;;;16.45;;
9880;SDS011;4979;51.014;6.678;2024-03-22T01:24:25;34.22;;;15.57;;
9880;SDS011;4979;51.014;6.678;2024-03-22T01:26:50;29.65;;;15.45;;
9880;SDS011;4979;51.014;6.678;2024-03-22T01:29:16;30.17;;;15.13;;
9880;SDS011;4979;51.014;6.678;2024-03-22T01:31:42;31.05;;;16.33;;
9880;SDS011;4979;51.014;6.678;2024-03-22T01:34:07;33.05;;;16.02;;
9880;SDS011;4979;51.014;6.678;2024-03-22T01:36:33;26.70;;;15.05;;
9880;SDS011;4979;51.014;6.678;2024-03-22T01:38:58;32.35;;;15.27;;
9880;SDS011;4979;51.014;6.678;2024-03-22T01:41:24;31.17;;;14.60;;
9880;SDS011;4979;51.014;6.678;2024-03-22T01:43:50;32.58;;;14.52;;
9880;SDS011;4979;51.014;6.678;2024-03-22T01:46:15;36.47;;;15.93;;
9880;SDS011;4979;51.014;6.678;2024-03-22T01:48:41;31.65;;;14.40;;
9880;SDS011;4979;51.014;6.678;2024-03-22T01:51:07;29.95;;;14.95;;
9880;SDS011;4979;51.014;6.678;2024-03-22T01:53:34;34.72;;;15.80;;
9880;SDS011;4979;51.014;6.678;2024-03-22T01:56:02;32.95;;;15.43;;
9880;SDS011;4979;51.014;6.678;2024-03-22T01:58:28;35.20;;;14.40;;
9880;SDS011;4979;51.014;6.678;2024-03-22T02:00:54;21.98;;;12.20;;
9880;SDS011;4979;51.014;6.678;2024-03-22T02:03:19;23.27;;;12.57;;
9880;SDS011;4979;51.014;6.678;2024-03-22T02:05:45;23.33;;;12.05;;
9880;SDS011;4979;51.014;6.678;2024-03-22T02:08:10;20.63;;;12.13;;
9880;SDS011;4979;51.014;6.678;2024-03-22T02:10:36;23.13;;;11.73;;
9880;SDS011;4979;51.014;6.678;2024-03-22T02:13:02;24.52;;;12.40;;
9880;SDS011;4979;51.014;6.678;2024-03-22T02:15:27;25.55;;;12.45;;
9880;SDS011;4979;51.014;6.678;2024-03-22T02:17:53;19.90;;;10.82;;
9880;SDS011;4979;51.014;6.678;2024-03-22T02:20:18;20.60;;;11.48;;
9880;SDS011;4979;51.014;6.678;2024-03-22T02:22:44;20.45;;;12.10;;
9880;SDS011;4979;51.014;6.678;2024-03-22T02:25:09;19.55;;;11.60;;
9880;SDS011;4979;51.014;6.678;2024-03-22T02:27:35;25.05;;;12.02;;
9880;SDS011;4979;51.014;6.678;2024-03-22T02:30:01;20.27;;;12.40;;
9880;SDS011;4979;51.014;6.678;2024-03-22T02:32:27;26.92;;;13.30;;
9880;SDS011;4979;51.014;6.678;2024-03-22T02:34:53;30.13;;;14.10;;
9880;SDS011;4979;51.014;6.678;2024-03-22T02:37:18;23.42;;;12.30;;
9880;SDS011;4979;51.014;6.678;2024-03-22T02:39:44;22.77;;;12.13;;
9880;SDS011;4979;51.014;6.678;2024-03-22T02:42:09;22.75;;;12.27;;
9880;SDS011;4979;51.014;6.678;2024-03-22T02:44:35;25.73;;;13.05;;
9880;SDS011;4979;51.014;6.678;2024-03-22T02:47:03;34.05;;;14.32;;
9880;SDS011;4979;51.014;6.678;2024-03-22T02:49:29;26.52;;;13.73;;
9880;SDS011;4979;51.014;6.678;2024-03-22T02:51:54;24.27;;;13.68;;
9880;SDS011;4979;51.014;6.678;2024-03-22T02:54:20;26.73;;;14.43;;
9880;SDS011;4979;51.014;6.678;2024-03-22T02:56:45;29.33;;;13.93;;
9880;SDS011;4979;51.014;6.678;2024-03-22T02:59:11;30.10;;;14.35;;
9880;SDS011;4979;51.014;6.678;2024-03-22T03:01:36;24.63;;;13.10;;
9880;SDS011;4979;51.014;6.678;2024-03-22T03:04:02;25.80;;;12.65;;
9880;SDS011;4979;51.014;6.678;2024-03-22T03:06:27;25.30;;;11.82;;
9880;SDS011;4979;51.014;6.678;2024-03-22T03:08:53;27.73;;;12.25;;
9880;SDS011;4979;51.014;6.678;2024-03-22T03:11:19;23.15;;;11.70;;
9880;SDS011;4979;51.014;6.678;2024-03-22T03:13:44;20.42;;;11.48;;
9880;SDS011;4979;51.014;6.678;2024-03-22T03:16:10;20.40;;;10.93;;
9880;SDS011;4979;51.014;6.678;2024-03-22T03:18:36;21.25;;;11.52;;
9880;SDS011;4979;51.014;6.678;2024-03-22T03:21:01;22.67;;;11.38;;
9880;SDS011;4979;51.014;6.678;2024-03-22T03:23:27;19.67;;;11.98;;
9880;SDS011;4979;51.014;6.678;2024-03-22T03:25:52;18.17;;;10.85;;
9880;SDS011;4979;51.014;6.678;2024-03-22T03:28:18;16.48;;;10.35;;
9880;SDS011;4979;51.014;6.678;2024-03-22T03:30:44;19.95;;;11.75;;
9880;SDS011;4979;51.014;6.678;2024-03-22T03:33:09;17.48;;;11.18;;
9880;SDS011;4979;51.014;6.678;2024-03-22T03:35:35;18.25;;;11.65;;
9880;SDS011;4979;51.014;6.678;2024-03-22T03:38:01;21.50;;;12.20;;
9880;SDS011;4979;51.014;6.678;2024-03-22T03:40:26;20.75;;;11.70;;
9880;SDS011;4979;51.014;6.678;2024-03-22T03:42:52;19.65;;;12.35;;
9880;SDS011;4979;51.014;6.678;2024-03-22T03:45:18;25.77;;;12.82;;
9880;SDS011;4979;51.014;6.678;2024-03-22T03:47:44;26.27;;;12.88;;
9880;SDS011;4979;51.014;6.678;2024-03-22T03:50:09;27.75;;;13.23;;
9880;SDS011;4979;51.014;6.678;2024-03-22T03:52:35;29.73;;;13.05;;
9880;SDS011;4979;51.014;6.678;2024-03-22T03:55:01;20.58;;;13.07;;
9880;SDS011;4979;51.014;6.678;2024-03-22T03:57:26;19.63;;;11.52;;
9880;SDS011;4979;51.014;6.678;2024-03-22T03:59:52;21.30;;;11.82;;
9880;SDS011;4979;51.014;6.678;2024-03-22T04:02:17;21.23;;;11.88;;
9880;SDS011;4979;51.014;6.678;2024-03-22T04:04:43;21.75;;;11.38;;
9880;SDS011;4979;51.014;6.678;2024-03-22T04:07:08;19.00;;;11.45;;
9880;SDS011;4979;51.014;6.678;2024-03-22T04:09:34;19.92;;;11.68;;
9880;SDS011;4979;51.014;6.678;2024-03-22T04:12:00;19.58;;;12.05;;
9880;SDS011;4979;51.014;6.678;2024-03-22T04:14:26;17.42;;;11.25;;
9880;SDS011;4979;51.014;6.678;2024-03-22T04:16:51;22.95;;;11.85;;
9880;SDS011;4979;51.014;6.678;2024-03-22T04:19:19;21.02;;;12.55;;
9880;SDS011;4979;51.014;6.678;2024-03-22T04:21:45;19.00;;;11.52;;
9880;SDS011;4979;51.014;6.678;2024-03-22T04:24:11;24.30;;;12.88;;
9880;SDS011;4979;51.014;6.678;2024-03-22T04:26:36;18.55;;;11.98;;
9880;SDS011;4979;51.014;6.678;2024-03-22T04:29:02;19.67;;;10.95;;
9880;SDS011;4979;51.014;6.678;2024-03-22T04:31:27;15.48;;;11.55;;
9880;SDS011;4979;51.014;6.678;2024-03-22T04:33:53;22.45;;;12.05;;
9880;SDS011;4979;51.014;6.678;2024-03-22T04:36:19;20.23;;;11.82;;
9880;SDS011;4979;51.014;6.678;2024-03-22T04:38:45;17.80;;;11.50;;
9880;SDS011;4979;51.014;6.678;2024-03-22T04:41:10;19.25;;;11.05;;
9880;SDS011;4979;51.014;6.678;2024-03-22T04:43:36;21.95;;;12.32;;
9880;SDS011;4979;51.014;6.678;2024-03-22T04:46:02;22.23;;;11.57;;
9880;SDS011;4979;51.014;6.678;2024-03-22T04:48:27;18.90;;;10.65;;
9880;SDS011;4979;51.014;6.678;2024-03-22T04:50:53;16.75;;;11.77;;
9880;SDS011;4979;51.014;6.678;2024-03-22T04:53:21;18.90;;;12.00;;
9880;SDS011;4979;51.014;6.678;2024-03-22T04:55:47;19.38;;;11.85;;
9880;SDS011;4979;51.014;6.678;2024-03-22T04:58:22;18.35;;;11.75;;
9880;SDS011;4979;51.014;6.678;2024-03-22T05:00:48;21.20;;;12.82;;
9880;SDS011;4979;51.014;6.678;2024-03-22T05:03:15;19.95;;;10.98;;
9880;SDS011;4979;51.014;6.678;2024-03-22T05:05:41;21.35;;;11.70;;
9880;SDS011;4979;51.014;6.678;2024-03-22T05:08:08;18.88;;;11.05;;
9880;SDS011;4979;51.014;6.678;2024-03-22T05:10:34;21.85;;;12.75;;
9880;SDS011;4979;51.014;6.678;2024-03-22T05:13:00;22.27;;;12.85;;
9880;SDS011;4979;51.014;6.678;2024-03-22T05:15:26;18.17;;;11.05;;
9880;SDS011;4979;51.014;6.678;2024-03-22T05:17:52;21.45;;;13.52;;
9880;SDS011;4979;51.014;6.678;2024-03-22T05:20:18;19.98;;;13.48;;
9880;SDS011;4979;51.014;6.678;2024-03-22T05:22:44;20.35;;;12.27;;
9880;SDS011;4979;51.014;6.678;2024-03-22T05:25:10;25.00;;;13.75;;
9880;SDS011;4979;51.014;6.678;2024-03-22T05:27:36;22.92;;;12.98;;
9880;SDS011;4979;51.014;6.678;2024-03-22T05:30:02;22.92;;;12.98;;
9880;SDS011;4979;51.014;6.678;2024-03-22T05:32:29;23.67;;;13.07;;
9880;SDS011;4979;51.014;6.678;2024-03-22T05:34:54;22.10;;;14.05;;
9880;SDS011;4979;51.014;6.678;2024-03-22T05:37:20;22.15;;;14.55;;
9880;SDS011;4979;51.014;6.678;2024-03-22T05:39:46;23.27;;;16.00;;
9880;SDS011;4979;51.014;6.678;2024-03-22T05:42:11;22.70;;;14.90;;
9880;SDS011;4979;51.014;6.678;2024-03-22T05:44:37;25.00;;;14.95;;
9880;SDS011;4979;51.014;6.678;2024-03-22T05:47:02;25.83;;;15.15;;
9880;SDS011;4979;51.014;6.678;2024-03-22T05:49:28;23.83;;;15.45;;
9880;SDS011;4979;51.014;6.678;2024-03-22T05:51:54;23.25;;;15.05;;
9880;SDS011;4979;51.014;6.678;2024-03-22T05:54:20;24.25;;;15.30;;
9880;SDS011;4979;51.014;6.678;2024-03-22T05:56:45;26.80;;;17.17;;
9880;SDS011;4979;51.014;6.678;2024-03-22T05:59:11;26.83;;;15.20;;
9880;SDS011;4979;51.014;6.678;2024-03-22T06:01:36;27.13;;;15.63;;
9880;SDS011;4979;51.014;6.678;2024-03-22T06:04:03;25.70;;;14.73;;
9880;SDS011;4979;51.014;6.678;2024-03-22T06:06:30;28.20;;;16.17;;
9880;SDS011;4979;51.014;6.678;2024-03-22T06:08:57;27.25;;;16.90;;
9880;SDS011;4979;51.014;6.678;2024-03-22T06:11:25;25.42;;;17.92;;
9880;SDS011;4979;51.014;6.678;2024-03-22T06:13:50;25.55;;;16.67;;
9880;SDS011;4979;51.014;6.678;2024-03-22T06:16:16;24.50;;;14.77;;
9880;SDS011;4979;51.014;6.678;2024-03-22T06:18:42;24.42;;;15.93;;
9880;SDS011;4979;51.014;6.678;2024-03-22T06:21:08;28.63;;;16.90;;
9880;SDS011;4979;51.014;6.678;2024-03-22T06:23:33;23.98;;;17.20;;
9880;SDS011;4979;51.014;6.678;2024-03-22T06:25:59;28.33;;;17.05;;
9880;SDS011;4979;51.014;6.678;2024-03-22T06:28:26;31.60;;;17.50;;
9880;SDS011;4979;51.014;6.678;2024-03-22T06:30:53;30.15;;;16.95;;
9880;SDS011;4979;51.014;6.678;2024-03-22T06:33:19;30.88;;;17.65;;
9880;SDS011;4979;51.014;6.678;2024-03-22T06:35:45;26.83;;;16.45;;
9880;SDS011;4979;51.014;6.678;2024-03-22T06:38:11;27.17;;;17.33;;
9880;SDS011;4979;51.014;6.678;2024-03-22T06:40:37;27.60;;;17.15;;
9880;SDS011;4979;51.014;6.678;2024-03-22T06:43:02;25.50;;;17.45;;
9880;SDS011;4979;51.014;6.678;2024-03-22T06:45:28;27.85;;;17.70;;
9880;SDS011;4979;51.014;6.678;2024-03-22T06:47:54;24.70;;;16.50;;
9880;SDS011;4979;51.014;6.678;2024-03-22T06:50:20;29.60;;;18.65;;
9880;SDS011;4979;51.014;6.678;2024-03-22T06:52:52;26.25;;;17.75;;
9880;SDS011;4979;51.014;6.678;2024-03-22T06:55:20;25.15;;;18.27;;
9880;SDS011;4979;51.014;6.678;2024-03-22T06:57:47;26.45;;;18.00;;
9880;SDS011;4979;51.014;6.678;2024-03-22T07:00:13;28.83;;;17.73;;
9880;SDS011;4979;51.014;6.678;2024-03-22T07:02:40;27.10;;;17.58;;
9880;SDS011;4979;51.014;6.678;2024-03-22T07:05:06;29.65;;;16.25;;
9880;SDS011;4979;51.014;6.678;2024-03-22T07:07:32;29.55;;;18.88;;
9880;SDS011;4979;51.014;6.678;2024-03-22T07:09:58;27.27;;;17.83;;
9880;SDS011;4979;51.014;6.678;2024-03-22T07:12:24;27.77;;;15.85;;
9880;SDS011;4979;51.014;6.678;2024-03-22T07:14:49;27.27;;;17.13;;
9880;SDS011;4979;51.014;6.678;2024-03-22T07:17:15;22.15;;;15.65;;
9880;SDS011;4979;51.014;6.678;2024-03-22T07:19:41;21.48;;;13.85;;
9880;SDS011;4979;51.014;6.678;2024-03-22T07:22:07;17.75;;;13.32;;
9880;SDS011;4979;51.014;6.678;2024-03-22T07:24:33;17.80;;;12.30;;
9880;SDS011;4979;51.014;6.678;2024-03-22T07:26:58;19.75;;;12.85;;
9880;SDS011;4979;51.014;6.678;2024-03-22T07:29:24;18.92;;;11.43;;
9880;SDS011;4979;51.014;6.678;2024-03-22T07:31:49;17.73;;;11.55;;
9880;SDS011;4979;51.014;6.678;2024-03-22T07:34:15;16.77;;;11.05;;
9880;SDS011;4979;51.014;6.678;2024-03-22T07:36:41;16.48;;;10.13;;
9880;SDS011;4979;51.014;6.678;2024-03-22T07:39:06;13.77;;;9.75;;
9880;SDS011;4979;51.014;6.678;2024-03-22T07:41:33;17.42;;;9.82;;
9880;SDS011;4979;51.014;6.678;2024-03-22T07:43:59;13.02;;;9.88;;
9880;SDS011;4979;51.014;6.678;2024-03-22T07:46:25;13.57;;;10.13;;
9880;SDS011;4979;51.014;6.678;2024-03-22T07:48:51;16.60;;;10.15;;
9880;SDS011;4979;51.014;6.678;2024-03-22T07:51:17;17.95;;;10.75;;
9880;SDS011;4979;51.014;6.678;2024-03-22T07:53:42;14.75;;;9.93;;
9880;SDS011;4979;51.014;6.678;2024-03-22T07:56:08;14.27;;;10.98;;
9880;SDS011;4979;51.014;6.678;2024-03-22T07:58:34;14.65;;;10.52;;
9880;SDS011;4979;51.014;6.678;2024-03-22T08:00:59;14.50;;;10.15;;
9880;SDS011;4979;51.014;6.678;2024-03-22T08:03:25;17.35;;;10.48;;
9880;SDS011;4979;51.014;6.678;2024-03-22T08:05:50;16.02;;;11.35;;
9880;SDS011;4979;51.014;6.678;2024-03-22T08:08:16;13.73;;;10.60;;
9880;SDS011;4979;51.014;6.678;2024-03-22T08:10:42;18.75;;;11.48;;
9880;SDS011;4979;51.014;6.678;2024-03-22T08:13:08;18.52;;;12.88;;
9880;SDS011;4979;51.014;6.678;2024-03-22T08:15:33;17.23;;;12.20;;
9880;SDS011;4979;51.014;6.678;2024-03-22T08:18:00;15.82;;;12.70;;
9880;SDS011;4979;51.014;6.678;2024-03-22T08:20:26;16.83;;;13.40;;
9880;SDS011;4979;51.014;6.678;2024-03-22T08:22:52;19.70;;;12.55;;
9880;SDS011;4979;51.014;6.678;2024-03-22T08:25:17;18.77;;;11.95;;
9880;SDS011;4979;51.014;6.678;2024-03-22T08:27:45;18.63;;;11.50;;
9880;SDS011;4979;51.014;6.678;2024-03-22T08:30:11;14.07;;;11.23;;
9880;SDS011;4979;51.014;6.678;2024-03-22T08:32:37;17.13;;;12.15;;
9880;SDS011;4979;51.014;6.678;2024-03-22T08:35:03;21.25;;;12.13;;
9880;SDS011;4979;51.014;6.678;2024-03-22T08:37:33;18.33;;;11.35;;
9880;SDS011;4979;51.014;6.678;2024-03-22T08:39:59;15.95;;;11.18;;
9880;SDS011;4979;51.014;6.678;2024-03-22T08:42:24;14.75;;;11.10;;
9880;SDS011;4979;51.014;6.678;2024-03-22T08:44:50;17.10;;;11.85;;
9880;SDS011;4979;51.014;6.678;2024-03-22T08:47:15;17.75;;;10.77;;
9880;SDS011;4979;51.014;6.678;2024-03-22T08:49:41;15.52;;;11.60;;
9880;SDS011;4979;51.014;6.678;2024-03-22T08:52:08;15.93;;;11.32;;
9880;SDS011;4979;51.014;6.678;2024-03-22T08:54:34;18.33;;;13.00;;
9880;SDS011;4979;51.014;6.678;2024-03-22T08:56:59;17.55;;;11.45;;
9880;SDS011;4979;51.014;6.678;2024-03-22T08:59:25;15.43;;;11.45;;
9880;SDS011;4979;51.014;6.678;2024-03-22T09:01:51;15.25;;;11.35;;
9880;SDS011;4979;51.014;6.678;2024-03-22T09:04:17;17.60;;;12.02;;
9880;SDS011;4979;51.014;6.678;2024-03-22T09:06:42;17.25;;;12.38;;
9880;SDS011;4979;51.014;6.678;2024-03-22T09:09:08;13.75;;;10.20;;
9880;SDS011;4979;51.014;6.678;2024-03-22T09:11:34;16.48;;;10.27;;
9880;SDS011;4979;51.014;6.678;2024-03-22T09:14:00;15.30;;;11.02;;
9880;SDS011;4979;51.014;6.678;2024-03-22T09:16:25;14.80;;;10.43;;
9880;SDS011;4979;51.014;6.678;2024-03-22T09:18:51;16.88;;;10.93;;
9880;SDS011;4979;51.014;6.678;2024-03-22T09:21:16;14.38;;;10.43;;
9880;SDS011;4979;51.014;6.678;2024-03-22T09:23:42;15.68;;;10.20;;
9880;SDS011;4979;51.014;6.678;2024-03-22T09:26:08;13.48;;;10.00;;
9880;SDS011;4979;51.014;6.678;2024-03-22T09:28:33;16.52;;;10.20;;
9880;SDS011;4979;51.014;6.678;2024-03-22T09:31:05;14.88;;;9.77;;
9880;SDS011;4979;51.014;6.678;2024-03-22T09:33:34;15.73;;;9.45;;
9880;SDS011;4979;51.014;6.678;2024-03-22T09:36:01;12.82;;;10.50;;
9880;SDS011;4979;51.014;6.678;2024-03-22T09:38:27;13.13;;;9.73;;
9880;SDS011;4979;51.014;6.678;2024-03-22T09:40:53;15.05;;;10.73;;
9880;SDS011;4979;51.014;6.678;2024-03-22T09:43:19;14.32;;;10.30;;
9880;SDS011;4979;51.014;6.678;2024-03-22T09:45:49;28.02;;;10.50;;
9880;SDS011;4979;51.014;6.678;2024-03-22T09:48:16;11.80;;;9.55;;
9880;SDS011;4979;51.014;6.678;2024-03-22T09:50:43;13.18;;;9.55;;
9880;SDS011;4979;51.014;6.678;2024-03-22T09:53:11;13.60;;;9.13;;
9880;SDS011;4979;51.014;6.678;2024-03-22T09:55:38;15.23;;;9.30;;
9880;SDS011;4979;51.014;6.678;2024-03-22T09:58:08;12.43;;;8.80;;
9880;SDS011;4979;51.014;6.678;2024-03-22T10:00:34;12.30;;;9.50;;
9880;SDS011;4979;51.014;6.678;2024-03-22T10:03:00;12.10;;;7.75;;
9880;SDS011;4979;51.014;6.678;2024-03-22T10:05:28;14.15;;;9.57;;
9880;SDS011;4979;51.014;6.678;2024-03-22T10:07:54;13.40;;;9.00;;
9880;SDS011;4979;51.014;6.678;2024-03-22T10:10:20;14.02;;;9.00;;
9880;SDS011;4979;51.014;6.678;2024-03-22T10:12:46;13.63;;;9.20;;
9880;SDS011;4979;51.014;6.678;2024-03-22T10:15:12;14.50;;;10.63;;
9880;SDS011;4979;51.014;6.678;2024-03-22T10:17:38;16.75;;;10.85;;
9880;SDS011;4979;51.014;6.678;2024-03-22T10:20:05;16.17;;;11.02;;
9880;SDS011;4979;51.014;6.678;2024-03-22T10:22:42;19.20;;;11.95;;
9880;SDS011;4979;51.014;6.678;2024-03-22T10:25:09;19.13;;;12.68;;
9880;SDS011;4979;51.014;6.678;2024-03-22T10:27:37;16.63;;;12.20;;
9880;SDS011;4979;51.014;6.678;2024-03-22T10:30:05;20.92;;;13.20;;
9880;SDS011;4979;51.014;6.678;2024-03-22T10:32:34;18.50;;;11.48;;
9880;SDS011;4979;51.014;6.678;2024-03-22T10:35:01;22.67;;;13.45;;
9880;SDS011;4979;51.014;6.678;2024-03-22T10:37:31;18.52;;;12.98;;
9880;SDS011;4979;51.014;6.678;2024-03-22T10:40:01;16.58;;;12.65;;
9880;SDS011;4979;51.014;6.678;2024-03-22T10:42:34;17.23;;;12.85;;
9880;SDS011;4979;51.014;6.678;2024-03-22T10:45:04;16.23;;;11.93;;
9880;SDS011;4979;51.014;6.678;2024-03-22T10:47:31;19.00;;;12.95;;
9880;SDS011;4979;51.014;6.678;2024-03-22T10:50:10;19.27;;;14.05;;
9880;SDS011;4979;51.014;6.678;2024-03-22T10:52:48;19.75;;;14.50;;
9880;SDS011;4979;51.014;6.678;2024-03-22T10:55:27;17.55;;;12.90;;
9880;SDS011;4979;51.014;6.678;2024-03-22T10:57:57;20.67;;;14.73;;
9880;SDS011;4979;51.014;6.678;2024-03-22T11:00:29;19.10;;;14.77;;
9880;SDS011;4979;51.014;6.678;2024-03-22T11:02:56;19.65;;;12.77;;
9880;SDS011;4979;51.014;6.678;2024-03-22T11:05:22;20.92;;;13.15;;
9880;SDS011;4979;51.014;6.678;2024-03-22T11:07:47;19.70;;;12.32;;
9880;SDS011;4979;51.014;6.678;2024-03-22T11:10:25;17.85;;;12.55;;
9880;SDS011;4979;51.014;6.678;2024-03-22T11:12:55;18.73;;;14.68;;
9880;SDS011;4979;51.014;6.678;2024-03-22T11:15:25;19.30;;;13.35;;
9880;SDS011;4979;51.014;6.678;2024-03-22T11:17:50;16.67;;;12.75;;
9880;SDS011;4979;51.014;6.678;2024-03-22T11:20:16;18.05;;;13.65;;
9880;SDS011;4979;51.014;6.678;2024-03-22T11:22:42;18.48;;;13.23;;
9880;SDS011;4979;51.014;6.678;2024-03-22T11:25:08;19.83;;;13.95;;
9880;SDS011;4979;51.014;6.678;2024-03-22T11:27:33;20.52;;;14.15;;
9880;SDS011;4979;51.014;6.678;2024-03-22T11:29:59;19.63;;;14.35;;
9880;SDS011;4979;51.014;6.678;2024-03-22T11:32:25;17.77;;;14.32;;
9880;SDS011;4979;51.014;6.678;2024-03-22T11:34:51;18.70;;;14.45;;
9880;SDS011;4979;51.014;6.678;2024-03-22T11:37:16;21.55;;;14.07;;
9880;SDS011;4979;51.014;6.678;2024-03-22T11:39:42;19.48;;;14.90;;
9880;SDS011;4979;51.014;6.678;2024-03-22T11:42:08;18.05;;;13.98;;
9880;SDS011;4979;51.014;6.678;2024-03-22T11:44:34;18.40;;;14.70;;
9880;SDS011;4979;51.014;6.678;2024-03-22T11:47:02;17.67;;;13.38;;
9880;SDS011;4979;51.014;6.678;2024-03-22T11:49:28;18.45;;;14.95;;
9880;SDS011;4979;51.014;6.678;2024-03-22T11:51:54;17.10;;;12.45;;
9880;SDS011;4979;51.014;6.678;2024-03-22T11:54:21;19.20;;;14.35;;
9880;SDS011;4979;51.014;6.678;2024-03-22T11:56:47;22.77;;;16.02;;
9880;SDS011;4979;51.014;6.678;2024-03-22T11:59:13;21.65;;;14.93;;
9880;SDS011;4979;51.014;6.678;2024-03-22T12:01:38;17.58;;;12.98;;
9880;SDS011;4979;51.014;6.678;2024-03-22T12:04:05;18.35;;;13.85;;
9880;SDS011;4979;51.014;6.678;2024-03-22T12:06:35;17.77;;;12.98;;
9880;SDS011;4979;51.014;6.678;2024-03-22T12:09:01;18.00;;;14.55;;
9880;SDS011;4979;51.014;6.678;2024-03-22T12:11:28;18.95;;;14.10;;
9880;SDS011;4979;51.014;6.678;2024-03-22T12:13:54;17.75;;;13.25;;
9880;SDS011;4979;51.014;6.678;2024-03-22T12:16:19;16.85;;;13.07;;
9880;SDS011;4979;51.014;6.678;2024-03-22T12:18:45;15.63;;;13.27;;
9880;SDS011;4979;51.014;6.678;2024-03-22T12:21:10;16.35;;;13.65;;
9880;SDS011;4979;51.014;6.678;2024-03-22T12:23:36;18.45;;;12.98;;
9880;SDS011;4979;51.014;6.678;2024-03-22T12:26:02;19.73;;;12.85;;
9880;SDS011;4979;51.014;6.678;2024-03-22T12:28:28;18.38;;;13.60;;
9880;SDS011;4979;51.014;6.678;2024-03-22T12:30:53;17.63;;;13.65;;
9880;SDS011;4979;51.014;6.678;2024-03-22T12:33:19;17.45;;;12.80;;
9880;SDS011;4979;51.014;6.678;2024-03-22T12:35:44;24.73;;;12.98;;
9880;SDS011;4979;51.014;6.678;2024-03-22T12:38:11;17.30;;;13.07;;
9880;SDS011;4979;51.014;6.678;2024-03-22T12:40:38;18.17;;;14.23;;
9880;SDS011;4979;51.014;6.678;2024-03-22T12:43:04;19.33;;;13.82;;
9880;SDS011;4979;51.014;6.678;2024-03-22T12:45:30;17.52;;;12.68;;
9880;SDS011;4979;51.014;6.678;2024-03-22T12:47:57;16.05;;;12.25;;
9880;SDS011;4979;51.014;6.678;2024-03-22T12:50:23;15.52;;;11.50;;
9880;SDS011;4979;51.014;6.678;2024-03-22T12:52:49;14.00;;;12.05;;
9880;SDS011;4979;51.014;6.678;2024-03-22T12:55:15;16.25;;;12.43;;
9880;SDS011;4979;51.014;6.678;2024-03-22T12:57:40;17.90;;;13.23;;
9880;SDS011;4979;51.014;6.678;2024-03-22T13:00:08;17.85;;;13.63;;
9880;SDS011;4979;51.014;6.678;2024-03-22T13:02:38;16.45;;;13.27;;
9880;SDS011;4979;51.014;6.678;2024-03-22T13:05:04;17.02;;;12.30;;
9880;SDS011;4979;51.014;6.678;2024-03-22T13:07:30;15.63;;;12.30;;
9880;SDS011;4979;51.014;6.678;2024-03-22T13:09:56;15.18;;;11.30;;
9880;SDS011;4979;51.014;6.678;2024-03-22T13:12:21;18.92;;;11.90;;
9880;SDS011;4979;51.014;6.678;2024-03-22T13:14:47;16.45;;;12.45;;
9880;SDS011;4979;51.014;6.678;2024-03-22T13:17:12;16.27;;;11.50;;
9880;SDS011;4979;51.014;6.678;2024-03-22T13:19:38;14.90;;;11.75;;
9880;SDS011;4979;51.014;6.678;2024-03-22T13:22:03;16.98;;;11.95;;
9880;SDS011;4979;51.014;6.678;2024-03-22T13:24:29;16.27;;;11.15;;
9880;SDS011;4979;51.014;6.678;2024-03-22T13:26:55;14.85;;;10.35;;
9880;SDS011;4979;51.014;6.678;2024-03-22T13:29:20;13.65;;;11.02;;
9880;SDS011;4979;51.014;6.678;2024-03-22T13:31:46;14.20;;;10.32;;
9880;SDS011;4979;51.014;6.678;2024-03-22T13:34:11;14.93;;;9.80;;
9880;SDS011;4979;51.014;6.678;2024-03-22T13:36:38;12.27;;;9.70;;
9880;SDS011;4979;51.014;6.678;2024-03-22T13:39:03;15.48;;;10.93;;
9880;SDS011;4979;51.014;6.678;2024-03-22T13:41:29;13.15;;;10.13;;
9880;SDS011;4979;51.014;6.678;2024-03-22T13:43:55;17.45;;;10.73;;
9880;SDS011;4979;51.014;6.678;2024-03-22T13:46:20;14.82;;;10.55;;
9880;SDS011;4979;51.014;6.678;2024-03-22T13:48:46;14.95;;;11.13;;
9880;SDS011;4979;51.014;6.678;2024-03-22T13:51:13;15.18;;;9.95;;
9880;SDS011;4979;51.014;6.678;2024-03-22T13:53:38;9.82;;;8.13;;
9880;SDS011;4979;51.014;6.678;2024-03-22T13:56:07;13.02;;;10.23;;
9880;SDS011;4979;51.014;6.678;2024-03-22T13:58:33;14.80;;;11.25;;
9880;SDS011;4979;51.014;6.678;2024-03-22T14:00:59;13.63;;;10.27;;
9880;SDS011;4979;51.014;6.678;2024-03-22T14:03:25;16.20;;;11.65;;
9880;SDS011;4979;51.014;6.678;2024-03-22T14:05:51;14.95;;;11.57;;
9880;SDS011;4979;51.014;6.678;2024-03-22T14:08:17;19.48;;;12.60;;
9880;SDS011;4979;51.014;6.678;2024-03-22T14:10:42;17.65;;;11.43;;
9880;SDS011;4979;51.014;6.678;2024-03-22T14:13:08;16.17;;;11.75;;
9880;SDS011;4979;51.014;6.678;2024-03-22T14:15:33;16.02;;;12.80;;
9880;SDS011;4979;51.014;6.678;2024-03-22T14:18:00;19.15;;;13.10;;
9880;SDS011;4979;51.014;6.678;2024-03-22T14:20:26;15.32;;;10.48;;
9880;SDS011;4979;51.014;6.678;2024-03-22T14:22:53;16.95;;;12.40;;
9880;SDS011;4979;51.014;6.678;2024-03-22T14:25:19;16.52;;;12.90;;
9880;SDS011;4979;51.014;6.678;2024-03-22T14:27:45;16.13;;;11.77;;
9880;SDS011;4979;51.014;6.678;2024-03-22T14:30:11;17.77;;;12.30;;
9880;SDS011;4979;51.014;6.678;2024-03-22T14:32:38;17.13;;;13.45;;
9880;SDS011;4979;51.014;6.678;2024-03-22T14:35:05;19.55;;;12.27;;
9880;SDS011;4979;51.014;6.678;2024-03-22T14:37:31;19.83;;;12.25;;
9880;SDS011;4979;51.014;6.678;2024-03-22T14:39:57;16.15;;;12.32;;
9880;SDS011;4979;51.014;6.678;2024-03-22T14:42:23;18.85;;;12.48;;